createdAt,value
2018-05-21T00:00:08.552Z,95.30
2018-05-21T00:02:36.817Z,94.70
2018-05-21T00:05:10.325Z,94.70
2018-05-21T00:07:38.707Z,94.60
2018-05-21T00:10:07.081Z,93.60
2018-05-21T00:12:35.473Z,93.10
2018-05-21T00:15:02.961Z,93.00
2018-05-21T00:17:30.701Z,92.90
2018-05-21T00:20:01.189Z,92.70
2018-05-21T00:22:28.674Z,92.10
2018-05-21T00:24:57.051Z,90.60
2018-05-21T00:27:25.304Z,90.60
2018-05-21T00:29:52.810Z,90.30
2018-05-21T00:32:20.299Z,90.10
2018-05-21T00:34:47.800Z,89.50
2018-05-21T00:37:16.164Z,87.40
2018-05-21T00:39:44.489Z,86.60
2018-05-21T00:42:11.973Z,86.50
2018-05-21T00:44:39.539Z,84.30
2018-05-21T00:47:07.018Z,84.30
2018-05-21T00:49:34.524Z,84.60
2018-05-21T00:52:02.774Z,83.90
2018-05-21T00:54:31.045Z,83.10
2018-05-21T00:56:58.530Z,83.00
2018-05-21T00:59:27.817Z,82.90
2018-05-21T01:01:56.058Z,83.10
2018-05-21T01:04:24.694Z,83.10
2018-05-21T01:06:52.952Z,83.10
2018-05-21T01:09:20.449Z,83.10
2018-05-21T01:11:58.013Z,83.00
2018-05-21T01:14:26.282Z,82.60
2018-05-21T01:16:53.769Z,82.50
2018-05-21T01:19:22.035Z,83.00
2018-05-21T01:21:50.282Z,83.40
2018-05-21T01:24:17.896Z,83.30
2018-05-21T01:26:45.391Z,83.50
2018-05-21T01:29:12.890Z,83.60
2018-05-21T01:31:41.134Z,84.70
2018-05-21T01:34:09.613Z,84.70
2018-05-21T01:36:37.097Z,84.70
2018-05-21T01:39:04.602Z,85.20
2018-05-21T01:41:32.090Z,86.30
2018-05-21T01:43:59.713Z,87.00
2018-05-21T01:46:28.057Z,87.60
2018-05-21T01:48:56.446Z,88.50
2018-05-21T01:51:24.702Z,89.20
2018-05-21T01:53:52.201Z,89.10
2018-05-21T01:56:20.653Z,89.40
2018-05-21T01:58:48.904Z,89.70
2018-05-21T02:01:16.397Z,89.70
2018-05-21T02:03:44.890Z,88.50
2018-05-21T02:06:13.153Z,88.00
2018-05-21T02:08:41.402Z,87.10
2018-05-21T02:11:08.914Z,87.00
2018-05-21T02:13:37.153Z,85.10
2018-05-21T02:16:05.890Z,85.10
2018-05-21T02:18:34.271Z,84.60
2018-05-21T02:21:02.453Z,84.30
2018-05-21T02:23:30.049Z,83.50
2018-05-21T02:25:57.549Z,83.60
2018-05-21T02:28:27.874Z,84.00
2018-05-21T02:30:56.134Z,85.20
2018-05-21T02:33:24.389Z,85.50
2018-05-21T02:35:52.007Z,85.40
2018-05-21T02:38:20.266Z,86.10
2018-05-21T02:40:48.542Z,87.10
2018-05-21T02:43:16.900Z,87.30
2018-05-21T02:45:44.397Z,87.30
2018-05-21T02:48:11.997Z,87.60
2018-05-21T02:50:40.345Z,87.90
2018-05-21T02:53:08.825Z,87.90
2018-05-21T02:55:36.326Z,88.30
2018-05-21T02:58:03.804Z,89.10
2018-05-21T03:00:31.294Z,89.40
2018-05-21T03:02:58.894Z,89.40
2018-05-21T03:05:27.271Z,89.70
2018-05-21T03:07:54.871Z,90.30
2018-05-21T03:10:25.265Z,90.00
2018-05-21T03:12:52.737Z,90.30
2018-05-21T03:15:24.257Z,90.40
2018-05-21T03:17:51.745Z,90.50
2018-05-21T03:20:19.229Z,90.50
2018-05-21T03:22:47.620Z,90.80
2018-05-21T03:25:15.867Z,91.00
2018-05-21T03:27:43.365Z,91.00
2018-05-21T03:30:10.851Z,91.30
2018-05-21T03:32:40.425Z,91.20
2018-05-21T03:35:08.614Z,91.10
2018-05-21T03:37:36.108Z,91.20
2018-05-21T03:40:03.718Z,91.20
2018-05-21T03:42:31.986Z,91.20
2018-05-21T03:45:01.105Z,91.20
2018-05-21T03:47:28.612Z,91.60
2018-05-21T03:49:56.097Z,91.60
2018-05-21T03:52:23.589Z,91.30
2018-05-21T03:54:52.630Z,91.20
2018-05-21T03:57:20.133Z,91.20
2018-05-21T04:00:00.222Z,91.30
2018-05-21T04:02:39.582Z,91.30
2018-05-21T04:05:07.067Z,91.40
2018-05-21T04:07:35.342Z,91.50
2018-05-21T04:10:02.973Z,91.50
2018-05-21T04:12:34.472Z,91.50
2018-05-21T04:15:02.717Z,92.00
2018-05-21T04:17:30.209Z,92.00
2018-05-21T04:19:58.457Z,92.20
2018-05-21T04:22:25.952Z,92.20
2018-05-21T04:24:55.775Z,92.20
2018-05-21T04:27:24.284Z,92.10
2018-05-21T04:29:51.770Z,92.10
2018-05-21T04:32:19.276Z,92.00
2018-05-21T04:34:46.869Z,91.90
2018-05-21T04:37:24.162Z,91.90
2018-05-21T04:39:51.649Z,92.00
2018-05-21T04:42:19.150Z,92.00
2018-05-21T04:44:48.318Z,91.90
2018-05-21T04:47:16.710Z,91.70
2018-05-21T04:49:45.967Z,91.30
2018-05-21T04:52:13.469Z,91.30
2018-05-21T04:54:41.757Z,90.70
2018-05-21T04:57:09.413Z,90.70
2018-05-21T04:59:38.642Z,90.10
2018-05-21T05:02:06.749Z,90.10
2018-05-21T05:04:34.250Z,89.10
2018-05-21T05:07:02.542Z,87.80
2018-05-21T05:09:30.043Z,87.80
2018-05-21T05:11:58.650Z,86.70
2018-05-21T05:14:26.918Z,85.00
2018-05-21T05:16:54.519Z,85.00
2018-05-21T05:19:22.013Z,84.90
2018-05-21T05:21:49.498Z,84.00
2018-05-21T05:24:16.998Z,82.90
2018-05-21T05:26:46.102Z,81.40
2018-05-21T05:29:13.622Z,81.30
2018-05-21T05:31:41.869Z,78.10
2018-05-21T05:34:09.370Z,78.00
2018-05-21T05:36:37.621Z,77.30
2018-05-21T05:39:05.914Z,77.20
2018-05-21T05:41:34.910Z,75.70
2018-05-21T05:44:03.165Z,75.60
2018-05-21T05:46:30.766Z,75.40
2018-05-21T05:48:58.262Z,75.50
2018-05-21T05:51:25.743Z,74.10
2018-05-21T05:53:53.235Z,71.80
2018-05-21T05:56:21.493Z,72.30
2018-05-21T05:58:49.933Z,70.70
2018-05-21T06:01:17.409Z,70.60
2018-05-21T06:03:44.999Z,71.00
2018-05-21T06:06:12.472Z,71.60
2018-05-21T06:08:40.750Z,72.30
2018-05-21T06:11:09.003Z,71.20
2018-05-21T06:13:36.496Z,71.20
2018-05-21T06:16:04.009Z,71.40
2018-05-21T06:18:31.489Z,70.00
2018-05-21T06:20:59.008Z,69.40
2018-05-21T06:23:26.494Z,71.30
2018-05-21T06:25:53.994Z,70.70
2018-05-21T06:28:22.245Z,67.60
2018-05-21T06:30:49.757Z,67.50
2018-05-21T06:33:17.263Z,66.20
2018-05-21T06:35:44.762Z,66.50
2018-05-21T06:38:12.237Z,66.90
2018-05-21T06:40:39.729Z,67.50
2018-05-21T06:43:07.225Z,66.00
2018-05-21T06:45:34.728Z,65.90
2018-05-21T06:48:02.205Z,65.90
2018-05-21T06:50:29.707Z,65.50
2018-05-21T06:52:57.185Z,64.30
2018-05-21T06:55:24.688Z,64.60
2018-05-21T06:57:52.237Z,63.40
2018-05-21T07:00:20.509Z,63.80
2018-05-21T07:02:47.989Z,63.80
2018-05-21T07:05:15.541Z,61.50
2018-05-21T07:07:43.105Z,63.40
2018-05-21T07:10:10.593Z,64.00
2018-05-21T07:12:38.837Z,64.20
2018-05-21T07:15:07.033Z,64.20
2018-05-21T07:17:34.513Z,64.10
2018-05-21T07:20:02.777Z,61.90
2018-05-21T07:22:31.041Z,62.50
2018-05-21T07:24:59.305Z,60.10
2018-05-21T07:27:26.794Z,60.10
2018-05-21T07:29:55.062Z,62.20
2018-05-21T07:32:27.945Z,62.30
2018-05-21T07:34:56.230Z,61.50
2018-05-21T07:37:24.476Z,61.90
2018-05-21T07:39:52.673Z,61.90
2018-05-21T07:42:22.042Z,63.50
2018-05-21T07:44:49.558Z,62.10
2018-05-21T07:47:17.270Z,62.30
2018-05-21T07:49:44.755Z,60.40
2018-05-21T07:52:12.365Z,62.50
2018-05-21T07:54:39.887Z,60.60
2018-05-21T07:57:08.177Z,60.70
2018-05-21T07:59:36.749Z,60.60
2018-05-21T08:02:05.017Z,59.70
2018-05-21T08:04:33.374Z,59.60
2018-05-21T08:07:00.871Z,58.60
2018-05-21T08:09:29.117Z,58.10
2018-05-21T08:11:56.626Z,58.10
2018-05-21T08:14:24.102Z,60.30
2018-05-21T08:16:51.612Z,59.00
2018-05-21T08:19:19.109Z,59.00
2018-05-21T08:21:46.609Z,58.80
2018-05-21T08:24:14.096Z,57.70
2018-05-21T08:26:42.364Z,58.50
2018-05-21T08:29:09.849Z,58.50
2018-05-21T08:31:38.141Z,59.00
2018-05-21T08:34:05.634Z,58.90
2018-05-21T08:36:33.145Z,58.50
2018-05-21T08:39:01.404Z,58.90
2018-05-21T08:41:29.682Z,57.60
2018-05-21T08:43:57.939Z,57.60
2018-05-21T08:46:25.434Z,57.50
2018-05-21T08:48:53.816Z,57.80
2018-05-21T08:51:21.235Z,57.80
2018-05-21T08:56:22.646Z,58.30
2018-05-21T08:58:50.966Z,58.60
2018-05-21T09:01:18.511Z,58.60
2018-05-21T09:03:46.040Z,58.90
2018-05-21T09:06:13.611Z,57.40
2018-05-21T09:08:41.190Z,56.90
2018-05-21T09:11:08.701Z,58.00
2018-05-21T09:13:36.973Z,56.70
2018-05-21T09:16:04.451Z,56.60
2018-05-21T09:18:32.785Z,57.10
2018-05-21T09:21:00.320Z,57.10
2018-05-21T09:23:27.817Z,56.70
2018-05-21T09:25:55.415Z,56.50
2018-05-21T09:28:22.917Z,56.90
2018-05-21T09:30:50.459Z,57.40
2018-05-21T09:33:17.957Z,58.40
2018-05-21T09:35:45.441Z,59.00
2018-05-21T09:38:13.709Z,57.50
2018-05-21T09:40:41.188Z,57.40
2018-05-21T09:43:09.465Z,57.20
2018-05-21T09:45:36.972Z,57.20
2018-05-21T09:48:04.560Z,57.00
2018-05-21T09:50:31.996Z,57.30
2018-05-21T09:52:59.777Z,56.30
2018-05-21T09:55:27.261Z,55.50
2018-05-21T09:57:55.529Z,55.60
2018-05-21T10:00:23.921Z,55.60
2018-05-21T10:02:52.197Z,57.00
2018-05-21T10:05:20.522Z,57.70
2018-05-21T10:07:48.864Z,57.60
2018-05-21T10:10:16.734Z,55.70
2018-05-21T10:12:44.228Z,55.00
2018-05-21T10:15:11.724Z,55.60
2018-05-21T10:17:39.216Z,57.70
2018-05-21T10:20:06.726Z,56.00
2018-05-21T10:22:34.214Z,57.20
2018-05-21T10:25:02.488Z,56.00
2018-05-21T10:27:29.981Z,56.00
2018-05-21T10:29:57.501Z,55.50
2018-05-21T10:32:25.761Z,54.80
2018-05-21T10:34:53.269Z,54.80
2018-05-21T10:37:20.793Z,57.30
2018-05-21T10:39:48.279Z,55.30
2018-05-21T10:42:16.525Z,53.90
2018-05-21T10:44:45.141Z,53.90
2018-05-21T10:47:12.629Z,53.10
2018-05-21T10:49:40.194Z,54.10
2018-05-21T10:52:07.687Z,54.70
2018-05-21T10:54:35.197Z,52.60
2018-05-21T10:57:02.696Z,50.20
2018-05-21T10:59:30.201Z,51.00
2018-05-21T11:01:58.521Z,51.20
2018-05-21T11:04:26.393Z,51.80
2018-05-21T11:06:54.875Z,51.90
2018-05-21T11:09:22.391Z,53.60
2018-05-21T11:11:50.641Z,51.30
2018-05-21T11:14:18.153Z,51.30
2018-05-21T11:16:45.749Z,51.60
2018-05-21T11:19:13.272Z,51.80
2018-05-21T11:21:40.921Z,52.90
2018-05-21T11:24:09.225Z,51.40
2018-05-21T11:26:43.861Z,53.40
2018-05-21T11:29:12.477Z,52.20
2018-05-21T11:31:40.190Z,52.30
2018-05-21T11:34:08.926Z,50.10
2018-05-21T11:36:36.433Z,50.30
2018-05-21T11:39:03.933Z,52.30
2018-05-21T11:41:31.509Z,51.70
2018-05-21T11:43:59.216Z,50.30
2018-05-21T11:46:26.833Z,52.10
2018-05-21T11:48:54.370Z,51.40
2018-05-21T11:51:22.746Z,52.50
2018-05-21T11:53:50.417Z,50.80
2018-05-21T11:56:17.921Z,48.70
2018-05-21T11:58:45.737Z,48.80
2018-05-21T12:01:23.549Z,49.40
2018-05-21T12:03:51.389Z,48.30
2018-05-21T12:06:19.144Z,47.30
2018-05-21T12:08:47.402Z,46.70
2018-05-21T12:11:19.517Z,46.40
2018-05-21T12:13:47.057Z,46.40
2018-05-21T12:16:14.562Z,47.80
2018-05-21T12:18:42.064Z,48.10
2018-05-21T12:21:09.563Z,48.60
2018-05-21T12:23:37.049Z,49.20
2018-05-21T12:26:05.342Z,48.20
2018-05-21T12:28:32.832Z,48.10
2018-05-21T12:31:00.342Z,49.10
2018-05-21T12:33:27.867Z,47.00
2018-05-21T12:35:55.368Z,49.20
2018-05-21T12:38:23.629Z,50.20
2018-05-21T12:40:51.149Z,50.10
2018-05-21T12:43:18.785Z,47.60
2018-05-21T12:45:46.264Z,46.40
2018-05-21T12:48:13.827Z,46.20
2018-05-21T12:50:41.311Z,45.10
2018-05-21T12:53:08.813Z,45.80
2018-05-21T12:55:37.533Z,46.00
2018-05-21T12:58:05.717Z,45.90
2018-05-21T13:00:33.209Z,46.90
2018-05-21T13:03:00.826Z,45.90
2018-05-21T13:05:28.309Z,45.20
2018-05-21T13:07:55.805Z,44.80
2018-05-21T13:10:25.059Z,44.10
2018-05-21T13:12:52.669Z,44.00
2018-05-21T13:15:27.850Z,44.80
2018-05-21T13:17:55.357Z,44.80
2018-05-21T13:20:22.862Z,44.00
2018-05-21T13:22:50.360Z,43.90
2018-05-21T13:25:18.473Z,42.20
2018-05-21T13:27:47.676Z,41.90
2018-05-21T13:30:15.145Z,41.80
2018-05-21T13:32:42.869Z,42.90
2018-05-21T13:35:10.406Z,43.10
2018-05-21T13:37:37.933Z,44.20
2018-05-21T13:40:05.421Z,43.80
2018-05-21T13:42:32.946Z,44.10
2018-05-21T13:45:00.422Z,43.10
2018-05-21T13:47:28.925Z,42.40
2018-05-21T13:49:56.408Z,43.00
2018-05-21T13:52:24.535Z,42.80
2018-05-21T13:54:52.018Z,42.40
2018-05-21T13:57:19.677Z,42.10
2018-05-21T13:59:47.169Z,41.40
2018-05-21T14:02:15.464Z,42.00
2018-05-21T14:04:44.522Z,41.70
2018-05-21T14:07:12.020Z,41.60
2018-05-21T14:09:40.267Z,42.10
2018-05-21T14:12:07.740Z,42.00
2018-05-21T14:14:36.005Z,41.50
2018-05-21T14:17:03.485Z,41.50
2018-05-21T14:19:31.745Z,44.30
2018-05-21T14:21:59.225Z,44.20
2018-05-21T14:24:27.532Z,40.80
2018-05-21T14:26:55.010Z,40.70
2018-05-21T14:29:22.575Z,40.60
2018-05-21T14:31:50.774Z,40.00
2018-05-21T14:34:18.287Z,39.90
2018-05-21T14:36:45.785Z,41.00
2018-05-21T14:39:13.287Z,41.70
2018-05-21T14:41:40.769Z,42.70
2018-05-21T14:44:08.281Z,40.50
2018-05-21T14:46:35.765Z,39.70
2018-05-21T14:49:04.030Z,43.40
2018-05-21T14:51:32.281Z,44.50
2018-05-21T14:53:59.776Z,44.40
2018-05-21T14:56:29.174Z,47.60
2018-05-21T14:58:57.544Z,47.70
2018-05-21T15:01:25.785Z,47.60
2018-05-21T15:03:54.414Z,47.60
2018-05-21T15:06:21.973Z,47.50
2018-05-21T15:08:51.956Z,47.80
2018-05-21T15:11:22.508Z,47.70
2018-05-21T15:13:51.780Z,48.50
2018-05-21T15:16:19.260Z,48.50
2018-05-21T15:18:48.538Z,48.80
2018-05-21T15:21:23.057Z,48.70
2018-05-21T15:23:50.623Z,48.80
2018-05-21T15:26:18.408Z,49.60
2018-05-21T15:28:57.183Z,50.30
2018-05-21T15:31:24.919Z,51.20
2018-05-21T15:33:53.186Z,51.50
2018-05-21T15:36:21.462Z,51.10
2018-05-21T15:38:49.856Z,50.90
2018-05-21T15:41:19.096Z,51.70
2018-05-21T15:43:46.702Z,51.70
2018-05-21T15:46:15.107Z,51.90
2018-05-21T15:48:42.669Z,52.20
2018-05-21T15:51:17.140Z,52.30
2018-05-21T15:53:45.477Z,53.20
2018-05-21T15:56:13.090Z,53.70
2018-05-21T15:58:40.580Z,54.60
2018-05-21T16:01:09.051Z,55.60
2018-05-21T16:03:43.017Z,55.20
2018-05-21T16:06:10.808Z,55.20
2018-05-21T16:08:38.333Z,55.50
2018-05-21T16:11:07.561Z,55.70
2018-05-21T16:13:42.097Z,56.20
2018-05-21T16:16:09.592Z,56.60
2018-05-21T16:18:37.080Z,55.70
2018-05-21T16:21:04.839Z,56.30
2018-05-21T16:23:32.453Z,55.30
2018-05-21T16:25:59.961Z,56.10
2018-05-21T16:28:28.449Z,55.40
2018-05-21T16:30:56.087Z,55.10
2018-05-21T16:33:23.579Z,54.70
2018-05-21T16:35:51.192Z,55.60
2018-05-21T16:38:19.441Z,56.10
2018-05-21T16:40:48.174Z,56.10
2018-05-21T16:43:16.629Z,56.80
2018-05-21T16:45:44.981Z,56.80
2018-05-21T16:48:13.576Z,57.10
2018-05-21T16:50:42.232Z,57.70
2018-05-21T16:53:09.849Z,58.00
2018-05-21T16:55:38.428Z,56.90
2018-05-21T16:58:09.825Z,56.60
2018-05-21T17:00:38.300Z,56.50
2018-05-21T17:03:05.913Z,56.50
2018-05-21T17:05:33.397Z,56.70
2018-05-21T17:08:01.673Z,56.90
2018-05-21T17:10:29.925Z,57.10
2018-05-21T17:12:57.437Z,57.00
2018-05-21T17:15:24.918Z,57.40
2018-05-21T17:17:52.434Z,57.90
2018-05-21T17:20:20.761Z,58.00
2018-05-21T17:22:48.974Z,57.40
2018-05-21T17:25:17.238Z,57.00
2018-05-21T17:27:44.745Z,57.00
2018-05-21T17:30:12.235Z,57.40
2018-05-21T17:32:39.732Z,57.40
2018-05-21T17:35:07.977Z,58.00
2018-05-21T17:37:35.481Z,57.90
2018-05-21T17:40:03.779Z,57.70
2018-05-21T17:42:31.301Z,57.60
2018-05-21T17:44:59.558Z,57.80
2018-05-21T17:47:27.059Z,57.70
2018-05-21T17:49:54.553Z,58.30
2018-05-21T17:52:22.062Z,57.80
2018-05-21T17:54:50.325Z,56.70
2018-05-21T17:57:17.830Z,56.60
2018-05-21T17:59:45.335Z,56.30
2018-05-21T18:02:12.834Z,56.60
2018-05-21T18:04:41.085Z,57.10
2018-05-21T18:07:09.357Z,57.00
2018-05-21T18:09:36.840Z,56.90
2018-05-21T18:12:05.085Z,57.30
2018-05-21T18:14:32.618Z,57.20
2018-05-21T18:17:00.093Z,58.00
2018-05-21T18:19:27.601Z,58.70
2018-05-21T18:21:55.105Z,59.00
2018-05-21T18:24:22.621Z,59.40
2018-05-21T18:26:50.109Z,59.70
2018-05-21T18:29:17.621Z,59.60
2018-05-21T18:31:45.889Z,58.40
2018-05-21T18:34:14.169Z,56.90
2018-05-21T18:36:41.653Z,56.90
2018-05-21T18:39:09.165Z,56.30
2018-05-21T18:41:36.705Z,56.10
2018-05-21T18:44:04.206Z,55.80
2018-05-21T18:46:31.680Z,56.20
2018-05-21T18:48:59.953Z,57.70
2018-05-21T18:51:28.197Z,58.00
2018-05-21T18:53:55.736Z,57.90
2018-05-21T18:56:23.942Z,57.70
2018-05-21T18:58:51.434Z,57.60
2018-05-21T19:01:19.677Z,58.10
2018-05-21T19:03:47.171Z,58.00
2018-05-21T19:06:15.469Z,58.70
2018-05-21T19:08:42.965Z,58.60
2018-05-21T19:11:10.441Z,58.00
2018-05-21T19:13:38.393Z,57.20
2018-05-21T19:16:05.874Z,57.90
2018-05-21T19:18:33.360Z,58.30
2018-05-21T19:21:01.617Z,59.60
2018-05-21T19:23:29.105Z,59.60
2018-05-21T19:25:56.589Z,62.50
2018-05-21T19:28:24.096Z,68.00
2018-05-21T19:30:52.370Z,73.10
2018-05-21T19:33:19.849Z,72.70
2018-05-21T19:35:48.108Z,76.80
2018-05-21T19:38:16.367Z,77.20
2018-05-21T19:40:43.885Z,77.20
2018-05-21T19:43:11.377Z,77.20
2018-05-21T19:45:38.878Z,76.80
2018-05-21T19:48:07.136Z,79.00
2018-05-21T19:50:34.694Z,79.00
2018-05-21T19:53:03.010Z,82.70
2018-05-21T19:55:30.657Z,82.50
2018-05-21T19:57:58.200Z,84.10
2018-05-21T20:00:26.534Z,86.80
2018-05-21T20:02:54.106Z,86.70
2018-05-21T20:05:21.605Z,87.20
2018-05-21T20:07:49.854Z,90.00
2018-05-21T20:10:17.351Z,89.90
2018-05-21T20:12:45.602Z,88.30
2018-05-21T20:15:13.097Z,88.30
2018-05-21T20:17:41.349Z,89.20
2018-05-21T20:20:09.613Z,89.90
2018-05-21T20:22:37.094Z,89.60
2018-05-21T20:25:05.361Z,90.00
2018-05-21T20:27:32.838Z,90.00
2018-05-21T20:30:01.101Z,91.50
2018-05-21T20:32:29.345Z,92.20
2018-05-21T20:34:56.845Z,92.20
2018-05-21T20:37:25.090Z,91.60
2018-05-21T20:39:52.574Z,91.60
2018-05-21T20:42:20.065Z,90.50
2018-05-21T20:44:47.541Z,86.00
2018-05-21T20:47:15.043Z,90.20
2018-05-21T20:49:42.513Z,90.30
2018-05-21T20:52:10.864Z,90.60
2018-05-21T20:54:38.270Z,90.60
2018-05-21T20:57:06.536Z,91.20
2018-05-21T20:59:35.668Z,91.40
2018-05-21T21:02:03.177Z,91.30
2018-05-21T21:04:31.429Z,91.20
2018-05-21T21:06:58.985Z,90.90
2018-05-21T21:09:26.461Z,90.50
2018-05-21T21:11:54.013Z,90.50
2018-05-21T21:14:21.506Z,90.60
2018-05-21T21:16:49.771Z,88.80
2018-05-21T21:19:18.026Z,87.60
2018-05-21T21:21:45.527Z,87.10
2018-05-21T21:24:13.771Z,89.40
2018-05-21T21:26:41.261Z,89.40
2018-05-21T21:29:09.507Z,86.50
2018-05-21T21:31:37.020Z,86.50
2018-05-21T21:34:04.498Z,88.60
2018-05-21T21:36:31.997Z,88.00
2018-05-21T21:39:00.980Z,91.30
2018-05-21T21:41:28.468Z,91.30
2018-05-21T21:43:56.713Z,90.30
2018-05-21T21:46:24.212Z,90.20
2018-05-21T21:48:51.735Z,90.00
2018-05-21T21:51:20.378Z,90.00
2018-05-21T21:53:47.976Z,90.30
2018-05-21T21:56:15.453Z,90.50
2018-05-21T21:58:42.946Z,90.60
2018-05-21T22:01:10.425Z,90.50
2018-05-21T22:03:37.921Z,90.50
2018-05-21T22:06:05.390Z,90.50
2018-05-21T22:08:33.652Z,89.60
2018-05-21T22:11:01.134Z,89.70
2018-05-21T22:13:29.421Z,91.60
2018-05-21T22:15:56.937Z,91.60
2018-05-21T22:18:24.429Z,91.30
2018-05-21T22:20:56.245Z,92.60
2018-05-21T22:23:23.755Z,92.50
2018-05-21T22:25:51.994Z,92.50
2018-05-21T22:28:19.485Z,92.50
2018-05-21T22:30:47.738Z,92.60
2018-05-21T22:33:15.237Z,92.60
2018-05-21T22:35:42.720Z,92.40
2018-05-21T22:38:10.204Z,92.90
2018-05-21T22:40:37.691Z,92.80
2018-05-21T22:43:05.972Z,93.30
2018-05-21T22:45:34.222Z,93.00
2018-05-21T22:48:01.717Z,92.90
2018-05-21T22:50:29.962Z,92.60
2018-05-21T22:52:57.462Z,92.60
2018-05-21T22:55:25.703Z,92.70
2018-05-21T22:57:53.189Z,92.70
2018-05-21T23:00:21.445Z,92.70
2018-05-21T23:02:48.962Z,92.70
2018-05-21T23:05:16.454Z,92.70
2018-05-21T23:07:43.959Z,92.70
2018-05-21T23:10:11.438Z,92.70
2018-05-21T23:12:38.909Z,92.70
2018-05-21T23:15:06.401Z,92.60
2018-05-21T23:17:33.877Z,92.50
2018-05-21T23:20:02.146Z,92.20
2018-05-21T23:22:37.817Z,92.30
2018-05-21T23:25:05.325Z,92.30
2018-05-21T23:27:32.807Z,92.70
2018-05-21T23:30:01.073Z,93.10
2018-05-21T23:32:28.554Z,93.10
2018-05-21T23:34:56.814Z,93.20
2018-05-21T23:37:24.286Z,93.20
2018-05-21T23:39:52.553Z,93.70
2018-05-21T23:42:20.041Z,93.40
2018-05-21T23:44:47.535Z,93.40
2018-05-21T23:47:15.026Z,93.50
2018-05-21T23:49:42.528Z,93.60
2018-05-21T23:52:10.042Z,93.90
2018-05-21T23:54:37.514Z,93.90
2018-05-21T23:57:04.990Z,94.00
2018-05-21T23:59:32.501Z,94.10
